首页
METAR-TAF:

METAR-TAF

机场 :

坎佩尔, 法国

纬度: 47-58N, 经度: 004-10W, 海拔: 92米

当前天气观测

该预报发布于17分钟前的17:30 UTC
风速14节,风向东北
温度 7°C
湿度 70%
气压 1043 hPa
能见度10公里或以上
1500米以下无云,无积雨云

METAR: LFRQ 201730Z AUTO 04014KT CAVOK 07/02 Q1043 NOSIG

时间: 18:47 (17:47 UTC)

预报

该预报发布于6小时和47分钟前的11:00 UTC
预报有效从20日的 12点(UTC)到 21日的 12点(UTC)
风速10节,风向东转东北
能见度10公里或以上
1500米以下无云,无积雨云
短暂存在
从 20日的 16点(UTC)到 20日的 19点(UTC)
风速12节,风向东北,有时为22节阵风

TAF: LFRQ 201100Z 2012/2112 06010KT CAVOK TEMPO 2016/2019 04012G22KT

超过4000个机场的气象观测和天气预报(METAR&TAF报告)。

可查询的气象台以黄色和红色小点在地图上表示。

将鼠标移到小点上方,可查看气象台名称。

然后点击查看天气观测和预报。

如需切换地图:点击带黑十字的绿色按钮放大地图;点击带横线的绿色按钮缩小地图;或者点击绿色箭头查看邻近地区的地图。


METAR-TAF: